Time;durP1;ratioP1;P1;durP2;ratioP2;P2;SDS_P1;SDS_P2;PMS_P1;PMS_P2;Temp;Humidity;BMP_temperature;BMP_pressure;BME280_temperature;BME280_humidity;BME280_pressure;Samples;Min_cycle;Max_cycle;Signal;HPM_P1;HPM_P2
2023/03/19 00:01:15;;;;;;;;;2.00;2.00;;;;;17.30;100.00;100957.78;4974249;28;45454;-74
2023/03/19 00:03:41;;;;;;;;;2.00;2.00;;;;;17.24;100.00;100963.16;4966792;28;45455;-74
2023/03/19 00:06:07;;;;;;;;;3.00;2.00;;;;;17.26;100.00;100955.56;4976378;28;45553;-75
2023/03/19 00:08:32;;;;;;;;;2.67;2.67;;;;;17.19;100.00;100954.63;4968557;28;45375;-74
2023/03/19 00:10:57;;;;;;;;;4.67;2.00;;;;;17.29;100.00;100963.44;4976060;28;45651;-75
2023/03/19 00:13:23;;;;;;;;;2.00;2.00;;;;;17.23;100.00;100961.47;4969248;28;45327;-75
2023/03/19 00:15:48;;;;;;;;;3.00;2.00;;;;;17.29;100.00;100974.44;4977592;28;46236;-75
2023/03/19 00:18:13;;;;;;;;;2.00;2.00;;;;;16.91;100.00;100963.44;4957506;28;45363;-75
2023/03/19 00:20:39;;;;;;;;;2.67;2.00;;;;;17.11;100.00;100967.38;4971858;28;45248;-75
2023/03/19 00:23:05;;;;;;;;;3.67;2.33;;;;;17.10;100.00;100970.31;4966466;28;45162;-76
2023/03/19 00:25:31;;;;;;;;;5.67;3.00;;;;;17.01;100.00;100965.94;4972126;28;46436;-76
2023/03/19 00:27:56;;;;;;;;;2.33;2.00;;;;;17.06;100.00;100971.72;4977690;28;45355;-75
2023/03/19 00:30:22;;;;;;;;;2.67;1.67;;;;;16.84;100.00;100981.69;4972616;28;45457;-75
2023/03/19 00:32:48;;;;;;;;;1.00;1.00;;;;;16.78;100.00;100993.41;4965076;28;45682;-76
2023/03/19 00:35:13;;;;;;;;;1.00;1.00;;;;;16.91;100.00;100977.16;4970977;28;48402;-76
2023/03/19 00:37:40;;;;;;;;;2.33;2.00;;;;;17.09;100.00;100988.66;4963572;28;45475;-76
2023/03/19 00:40:07;;;;;;;;;1.67;1.67;;;;;17.05;100.00;100987.34;5004848;28;45576;-75
2023/03/19 00:42:32;;;;;;;;;5.33;3.00;;;;;16.92;100.00;100987.13;4964924;28;45417;-76
2023/03/19 00:44:58;;;;;;;;;1.67;1.67;;;;;16.92;100.00;100987.13;4967925;28;45551;-76
2023/03/19 00:47:23;;;;;;;;;3.00;3.00;;;;;16.91;100.00;100995.53;4965415;28;45254;-76
2023/03/19 00:49:49;;;;;;;;;2.33;2.33;;;;;16.83;100.00;100995.59;4975248;28;45230;-76
2023/03/19 00:52:15;;;;;;;;;3.00;3.00;;;;;16.90;100.00;100989.19;4961723;28;47520;-76
2023/03/19 00:54:40;;;;;;;;;4.00;4.00;;;;;16.68;100.00;100979.91;4975967;28;45617;-76
2023/03/19 00:57:06;;;;;;;;;2.33;2.33;;;;;16.83;100.00;101001.94;4967342;28;45439;-75
2023/03/19 00:59:31;;;;;;;;;1.00;1.00;;;;;16.94;100.00;100998.78;4975766;28;45384;-75
2023/03/19 01:01:57;;;;;;;;;2.33;2.33;;;;;16.89;100.00;100995.69;4963057;28;45623;-76
2023/03/19 01:04:22;;;;;;;;;3.33;3.33;;;;;16.94;100.00;101001.53;4971031;28;47489;-76
2023/03/19 01:06:48;;;;;;;;;4.33;3.33;;;;;16.92;100.00;100986.25;4969175;28;45540;-75
2023/03/19 01:09:14;;;;;;;;;3.00;3.00;;;;;16.94;100.00;100978.69;5003076;28;46127;-76
2023/03/19 01:11:40;;;;;;;;;2.00;2.00;;;;;16.97;100.00;101003.88;4971137;28;45427;-75
2023/03/19 01:14:05;;;;;;;;;2.00;2.00;;;;;17.04;100.00;101007.59;4972347;28;45326;-75
2023/03/19 01:16:33;;;;;;;;;5.00;4.33;;;;;16.96;100.00;101007.66;4970634;28;45581;-75
2023/03/19 01:18:58;;;;;;;;;4.00;2.33;;;;;17.01;100.00;101015.34;4973530;28;45336;-75
2023/03/19 01:21:23;;;;;;;;;4.00;4.00;;;;;17.03;100.00;101005.88;4970654;28;45432;-75
2023/03/19 01:23:50;;;;;;;;;3.33;2.33;;;;;16.89;100.00;100998.44;4964182;28;45341;-76
2023/03/19 01:26:16;;;;;;;;;3.00;3.00;;;;;17.04;100.00;101007.59;4969719;28;45385;-75
2023/03/19 01:28:42;;;;;;;;;4.00;2.33;;;;;17.12;100.00;101010.28;4964811;28;45456;-76
2023/03/19 01:31:08;;;;;;;;;3.00;3.00;;;;;17.09;100.00;100999.66;5002307;28;45410;-75
2023/03/19 01:33:34;;;;;;;;;3.00;3.00;;;;;17.00;100.00;100992.53;4964028;28;45711;-76
2023/03/19 01:36:04;;;;;;;;;0.00;0.00;;;;;16.91;100.00;100999.13;4963656;28;45309;-75
2023/03/19 01:38:30;;;;;;;;;4.00;4.00;;;;;16.87;100.00;101014.25;4963817;28;45444;-75
2023/03/19 01:40:56;;;;;;;;;4.67;4.00;;;;;16.91;100.00;101018.34;4978404;28;45232;-75
2023/03/19 01:43:29;;;;;;;;;3.33;3.33;;;;;16.94;100.00;101020.72;4964481;28;45258;-75
2023/03/19 01:46:00;;;;;;;;;5.00;5.00;;;;;16.99;100.00;101015.53;4992760;28;45865;-75
2023/03/19 01:48:38;;;;;;;;;4.33;4.00;;;;;17.02;100.00;101012.41;4968248;28;45453;-75
2023/03/19 01:51:06;;;;;;;;;4.67;4.00;;;;;16.96;100.00;101010.41;4967703;28;45300;-75
2023/03/19 01:53:34;;;;;;;;;3.33;3.00;;;;;16.93;100.00;101021.75;4967292;28;45457;-76
2023/03/19 01:56:06;;;;;;;;;5.00;5.00;;;;;16.78;100.00;101001.63;4980549;28;46168;-75
2023/03/19 01:58:31;;;;;;;;;4.00;4.00;;;;;16.89;100.00;101006.69;4980410;28;45669;-75
2023/03/19 02:00:57;;;;;;;;;2.00;2.00;;;;;16.97;100.00;101006.63;4981093;28;45506;-75
2023/03/19 02:03:23;;;;;;;;;6.67;3.67;;;;;16.89;100.00;101019.53;4980017;28;48374;-75
2023/03/19 02:05:51;;;;;;;;;6.00;4.67;;;;;16.91;100.00;101001.88;4998300;28;45461;-76
2023/03/19 02:08:19;;;;;;;;;6.00;6.00;;;;;16.96;100.00;100996.69;4997145;28;45418;-76
2023/03/19 02:10:46;;;;;;;;;5.00;5.00;;;;;16.99;100.00;101004.56;4967424;28;45757;-75
2023/03/19 02:13:13;;;;;;;;;4.00;4.00;;;;;16.92;100.00;100997.25;4963708;28;47511;-75
2023/03/19 02:15:38;;;;;;;;;3.67;3.67;;;;;16.92;100.00;100995.34;4997951;28;45370;-75
2023/03/19 02:18:04;;;;;;;;;3.67;3.67;;;;;16.79;100.00;100978.66;4966537;28;45455;-76
2023/03/19 02:20:36;;;;;;;;;8.33;6.00;;;;;16.71;100.00;100984.19;4966959;28;45552;-76
2023/03/19 02:23:23;;;;;;;;;4.00;4.00;;;;;16.73;100.00;100993.06;4964233;28;46793;-76
2023/03/19 02:26:11;;;;;;;;;5.00;5.00;;;;;16.56;100.00;100989.56;4967654;28;45400;-75
2023/03/19 02:28:41;;;;;;;;;5.33;5.33;;;;;16.59;100.00;100980.97;4966627;28;45304;-76
2023/03/19 02:31:07;;;;;;;;;5.00;5.00;;;;;16.63;100.00;100987.00;4973823;28;45438;-76
2023/03/19 02:33:33;;;;;;;;;8.33;4.67;;;;;16.67;100.00;100989.19;4968459;28;45415;-76
2023/03/19 02:36:00;;;;;;;;;7.00;4.00;;;;;16.67;100.00;100982.84;4977163;28;45415;-76
2023/03/19 02:38:28;;;;;;;;;6.00;6.00;;;;;16.72;100.00;100997.75;4968789;28;45388;-76
2023/03/19 02:40:59;;;;;;;;;7.00;6.67;;;;;16.63;100.00;101000.72;4974445;28;45388;-76
2023/03/19 02:43:25;;;;;;;;;7.00;5.67;;;;;16.65;100.00;101009.63;5001550;28;47719;-76
2023/03/19 02:45:51;;;;;;;;;6.67;6.00;;;;;16.56;100.00;100999.69;4967974;28;45391;-76
2023/03/19 02:48:16;;;;;;;;;6.67;6.00;;;;;16.60;100.00;101003.75;4974183;28;45442;-76
2023/03/19 02:50:41;;;;;;;;;5.00;5.00;;;;;16.52;100.00;100998.31;4975195;28;45321;-76
2023/03/19 02:53:08;;;;;;;;;4.00;4.00;;;;;16.63;100.00;101006.19;4973804;28;46863;-76
2023/03/19 02:55:34;;;;;;;;;7.00;5.67;;;;;16.75;100.00;101004.72;5005760;28;45468;-76
2023/03/19 02:57:59;;;;;;;;;5.00;5.00;;;;;16.71;100.00;101000.66;4967562;28;45411;-75
2023/03/19 03:00:25;;;;;;;;;8.00;6.00;;;;;16.70;100.00;100998.94;4975577;28;45435;-76
2023/03/19 03:02:50;;;;;;;;;2.33;2.33;;;;;16.78;100.00;101018.09;4967727;28;46958;-76
2023/03/19 03:05:16;;;;;;;;;7.00;5.00;;;;;16.78;100.00;101006.25;4981485;28;45953;-75
2023/03/19 03:07:43;;;;;;;;;4.67;4.67;;;;;16.71;100.00;101006.13;4972278;28;45448;-76
2023/03/19 03:10:10;;;;;;;;;4.33;4.33;;;;;16.67;100.00;101004.78;4975342;28;45522;-75
2023/03/19 03:12:35;;;;;;;;;3.00;2.67;;;;;16.74;100.00;101019.47;4974255;28;46200;-76
2023/03/19 03:15:01;;;;;;;;;4.33;4.33;;;;;16.61;100.00;101005.50;4973879;28;48879;-76
2023/03/19 03:17:27;;;;;;;;;4.00;4.00;;;;;16.65;100.00;101029.69;4970797;28;45285;-76
2023/03/19 03:19:52;;;;;;;;;4.67;4.67;;;;;16.60;100.00;101010.13;4998402;28;45465;-76
2023/03/19 03:22:17;;;;;;;;;8.00;5.00;;;;;16.61;100.00;101016.47;4969317;28;46843;-76
2023/03/19 03:24:43;;;;;;;;;7.00;5.67;;;;;16.57;100.00;101015.13;4966171;28;45305;-76
2023/03/19 03:27:08;;;;;;;;;4.00;4.00;;;;;16.63;100.00;101019.91;4973223;28;45325;-75
2023/03/19 03:29:34;;;;;;;;;10.33;6.00;;;;;16.73;100.00;101020.50;4958934;28;45566;-76
2023/03/19 03:32:00;;;;;;;;;2.00;2.00;;;;;16.68;100.00;101011.97;4967251;28;46859;-75
2023/03/19 03:34:25;;;;;;;;;4.67;4.00;;;;;16.65;100.00;101023.34;4969096;28;45260;-76
2023/03/19 03:36:50;;;;;;;;;6.00;6.00;;;;;16.56;100.00;101018.91;4970641;28;45473;-76
2023/03/19 03:39:17;;;;;;;;;4.33;4.33;;;;;16.42;100.00;101011.44;4968778;28;45430;-76
2023/03/19 03:41:43;;;;;;;;;7.33;7.00;;;;;16.48;100.00;101016.19;4971552;28;45594;-76
2023/03/19 03:44:09;;;;;;;;;6.33;6.00;;;;;16.46;100.00;101018.25;4971313;28;45331;-76
2023/03/19 03:46:34;;;;;;;;;4.00;4.00;;;;;16.33;100.00;101025.19;4966947;28;45489;-76
2023/03/19 03:48:59;;;;;;;;;4.00;4.00;;;;;16.38;100.00;101007.31;4962849;28;45384;-75
2023/03/19 03:51:25;;;;;;;;;4.00;4.00;;;;;16.62;100.00;101020.94;4974014;28;46203;-76
2023/03/19 03:53:50;;;;;;;;;3.33;3.00;;;;;16.64;100.00;101027.09;4979506;28;45914;-76
2023/03/19 03:56:16;;;;;;;;;3.00;1.67;;;;;16.76;100.00;101020.16;4975528;28;45344;-76
2023/03/19 03:58:41;;;;;;;;;6.00;5.00;;;;;16.73;100.00;101026.00;4972303;28;45601;-76
2023/03/19 04:01:08;;;;;;;;;4.00;4.00;;;;;16.80;100.00;101027.00;4975399;28;47079;-76
2023/03/19 04:03:33;;;;;;;;;7.00;5.33;;;;;16.73;100.00;101035.09;4966179;28;45323;-75
2023/03/19 04:05:59;;;;;;;;;8.33;5.00;;;;;16.65;100.00;101034.31;4977959;28;45245;-75
2023/03/19 04:08:24;;;;;;;;;4.00;4.00;;;;;16.61;100.00;101016.47;4966727;28;45384;-76
2023/03/19 04:10:49;;;;;;;;;8.00;6.00;;;;;16.70;100.00;101031.88;4978357;28;45224;-76
2023/03/19 04:13:15;;;;;;;;;4.33;4.00;;;;;16.67;100.00;101027.59;4964354;28;45421;-75
2023/03/19 04:15:42;;;;;;;;;4.67;3.00;;;;;16.71;100.00;101028.09;4978565;28;45324;-76
2023/03/19 04:18:07;;;;;;;;;8.00;8.00;;;;;16.86;100.00;101037.25;4964591;28;45483;-76
2023/03/19 04:20:33;;;;;;;;;3.33;3.33;;;;;16.66;100.00;101025.00;4970418;28;45634;-76
2023/03/19 04:22:58;;;;;;;;;5.00;5.00;;;;;16.79;100.00;101035.41;4964102;28;45388;-76
2023/03/19 04:25:23;;;;;;;;;6.67;5.67;;;;;16.79;100.00;101029.94;4971012;28;45344;-76
2023/03/19 04:27:49;;;;;;;;;4.00;4.00;;;;;16.56;100.00;101013.41;4965404;28;45416;-76
2023/03/19 04:30:14;;;;;;;;;6.33;5.33;;;;;16.76;100.00;101036.63;4976131;28;45764;-76
2023/03/19 04:32:42;;;;;;;;;4.67;4.67;;;;;16.70;100.00;101020.91;4964829;28;45375;-75
2023/03/19 04:35:08;;;;;;;;;5.33;5.33;;;;;16.72;100.00;101052.63;4966954;28;45426;-75
2023/03/19 04:37:33;;;;;;;;;8.00;6.33;;;;;16.35;100.00;101014.03;4964159;28;45518;-75
2023/03/19 04:39:59;;;;;;;;;6.00;6.00;;;;;16.32;100.00;101031.69;4965420;28;47209;-75
2023/03/19 04:42:25;;;;;;;;;7.00;7.00;;;;;16.35;100.00;101050.56;4996391;28;45335;-75
2023/03/19 04:44:51;;;;;;;;;9.67;8.00;;;;;16.31;100.00;101042.84;4969937;28;45205;-76
2023/03/19 04:47:17;;;;;;;;;7.67;6.00;;;;;16.39;100.00;101039.19;4965801;28;45508;-76
2023/03/19 04:49:42;;;;;;;;;9.00;8.00;;;;;16.32;100.00;101036.31;4975902;28;45272;-75
2023/03/19 04:52:08;;;;;;;;;6.67;6.67;;;;;16.34;100.00;101039.75;4967605;28;45469;-75
2023/03/19 04:54:33;;;;;;;;;6.33;6.33;;;;;16.21;100.00;101037.59;5007357;28;45311;-76
2023/03/19 04:56:59;;;;;;;;;6.00;6.00;;;;;16.18;100.00;101040.69;4973710;28;45581;-76
2023/03/19 04:59:25;;;;;;;;;7.33;7.33;;;;;16.13;100.00;101032.13;5003147;28;46378;-75
2023/03/19 05:01:50;;;;;;;;;6.33;6.33;;;;;16.24;100.00;101053.66;4969670;28;45522;-76
2023/03/19 05:04:16;;;;;;;;;8.33;6.33;;;;;16.21;100.00;101048.56;4956342;28;45309;-75
2023/03/19 05:06:42;;;;;;;;;8.00;6.33;;;;;16.13;100.00;101055.94;4970216;28;45499;-75
2023/03/19 05:09:08;;;;;;;;;8.00;8.00;;;;;16.11;100.00;101047.03;4980082;28;46774;-75
2023/03/19 05:11:33;;;;;;;;;8.00;8.00;;;;;16.15;100.00;101059.34;4965288;28;45547;-75
2023/03/19 05:13:59;;;;;;;;;9.00;8.00;;;;;15.85;100.00;101042.66;4967083;28;45198;-75
2023/03/19 05:16:24;;;;;;;;;8.33;7.67;;;;;15.90;100.00;101056.72;4968478;28;45186;-75
2023/03/19 05:18:49;;;;;;;;;8.67;7.33;;;;;16.02;100.00;101059.91;4968187;28;46331;-75
2023/03/19 05:21:15;;;;;;;;;12.00;9.00;;;;;15.96;100.00;101080.66;4970909;28;45317;-76
2023/03/19 05:23:40;;;;;;;;;9.00;9.00;;;;;15.71;100.00;101075.38;4970424;28;45727;-75
2023/03/19 05:26:07;;;;;;;;;9.00;9.00;;;;;15.84;100.00;101079.34;4980154;28;45225;-75
2023/03/19 05:28:33;;;;;;;;;10.00;10.00;;;;;15.97;100.00;101078.78;4970421;28;45727;-76
2023/03/19 05:30:58;;;;;;;;;7.67;7.67;;;;;15.92;100.00;101075.72;4967101;28;45483;-76
2023/03/19 05:33:24;;;;;;;;;11.67;9.33;;;;;15.82;100.00;101080.53;4972682;28;45490;-76
2023/03/19 05:35:49;;;;;;;;;8.00;8.00;;;;;15.95;100.00;101086.31;4983900;28;45364;-76
2023/03/19 05:38:15;;;;;;;;;13.67;7.67;;;;;15.99;100.00;101076.72;4973349;28;46858;-76
2023/03/19 05:40:41;;;;;;;;;9.00;9.00;;;;;16.12;100.00;101082.50;4979875;28;45367;-76
2023/03/19 05:43:08;;;;;;;;;12.00;11.33;;;;;16.10;100.00;101084.56;4976239;28;45413;-74
2023/03/19 05:45:34;;;;;;;;;10.33;10.33;;;;;16.17;100.00;101084.72;4972728;28;45475;-75
2023/03/19 05:48:00;;;;;;;;;13.00;12.00;;;;;15.94;100.00;101092.81;4972577;28;47295;-75
2023/03/19 05:50:25;;;;;;;;;14.00;12.67;;;;;16.04;100.00;101090.75;4982404;28;45140;-75
2023/03/19 05:52:51;;;;;;;;;11.67;10.33;;;;;16.10;100.00;101095.53;4969587;28;45448;-75
2023/03/19 05:55:16;;;;;;;;;15.67;14.00;;;;;15.99;100.00;101106.88;5011137;28;45442;-75
2023/03/19 05:57:42;;;;;;;;;21.67;17.33;;;;;15.84;100.00;101109.47;4970999;28;46647;-76
2023/03/19 06:00:08;;;;;;;;;15.00;14.00;;;;;15.65;100.00;101106.22;5004764;28;48031;-76
2023/03/19 06:02:34;;;;;;;;;14.67;14.00;;;;;15.89;100.00;101114.41;4972560;28;45400;-75
2023/03/19 06:05:00;;;;;;;;;15.67;13.67;;;;;15.96;100.00;101120.91;4973481;28;45528;-76
2023/03/19 06:07:25;;;;;;;;;12.00;8.67;;;;;15.75;100.00;101113.25;4974800;28;47537;-75
2023/03/19 06:09:51;;;;;;;;;12.00;11.00;;;;;15.53;100.00;101106.59;4973462;28;45472;-76
2023/03/19 06:12:16;;;;;;;;;14.00;13.00;;;;;15.56;100.00;101125.41;4977223;28;45474;-76
2023/03/19 06:14:41;;;;;;;;;13.33;10.67;;;;;15.67;100.00;101137.91;4966959;28;45435;-76
2023/03/19 06:17:08;;;;;;;;;17.00;16.00;;;;;15.64;100.00;101129.16;4979609;28;47087;-76
2023/03/19 06:19:33;;;;;;;;;15.67;15.67;;;;;15.74;100.00;101135.31;4967151;28;45415;-76
2023/03/19 06:21:58;;;;;;;;;13.33;12.33;;;;;15.78;100.00;101133.97;4964106;28;45701;-76
2023/03/19 06:24:24;;;;;;;;;13.00;13.00;;;;;15.79;100.00;101136.50;4964315;28;45175;-74
2023/03/19 06:26:49;;;;;;;;;14.00;12.00;;;;;15.70;100.00;101123.03;4966343;28;45261;-74
2023/03/19 06:29:15;;;;;;;;;12.00;12.00;;;;;15.67;100.00;101137.03;4962834;28;45811;-75
2023/03/19 06:31:40;;;;;;;;;16.00;12.33;;;;;15.62;100.00;101136.72;4963527;28;45162;-75
2023/03/19 06:34:06;;;;;;;;;15.33;13.67;;;;;15.59;100.00;101157.06;4964250;28;45388;-75
2023/03/19 06:36:31;;;;;;;;;9.67;7.67;;;;;15.58;100.00;101169.06;4965167;28;45529;-75
2023/03/19 06:38:57;;;;;;;;;16.00;15.33;;;;;15.30;100.00;101146.59;4966518;28;45527;-75
2023/03/19 06:41:23;;;;;;;;;13.67;13.00;;;;;15.49;100.00;101162.69;4966082;28;45376;-74
2023/03/19 06:43:49;;;;;;;;;13.00;11.00;;;;;15.53;100.00;101152.28;4967110;28;45625;-77
2023/03/19 06:46:14;;;;;;;;;12.33;11.33;;;;;15.61;100.00;101159.66;4965366;28;45545;-75
2023/03/19 06:48:40;;;;;;;;;11.33;11.33;;;;;15.52;100.00;101150.53;4972839;28;45504;-75
2023/03/19 06:51:05;;;;;;;;;13.67;13.33;;;;;15.40;100.00;101155.50;5014901;28;45403;-74
2023/03/19 06:53:31;;;;;;;;;14.33;12.00;;;;;15.65;100.00;101169.22;4956597;28;45393;-75
2023/03/19 06:55:56;;;;;;;;;15.00;13.67;;;;;15.85;100.00;101159.66;4965425;28;46305;-75
2023/03/19 06:58:22;;;;;;;;;9.67;9.67;;;;;15.77;100.00;101154.19;4957161;28;45429;-76
2023/03/19 07:00:47;;;;;;;;;13.00;12.33;;;;;15.78;100.00;101159.47;4963948;28;45219;-75
2023/03/19 07:03:12;;;;;;;;;14.33;12.00;;;;;15.67;100.00;101170.78;4967809;28;45226;-75
2023/03/19 07:05:38;;;;;;;;;11.00;11.00;;;;;15.82;100.00;101163.59;5006059;28;46851;-75
2023/03/19 07:08:03;;;;;;;;;13.33;12.67;;;;;15.92;100.00;101152.44;4969635;28;45226;-76
2023/03/19 07:10:29;;;;;;;;;14.67;12.67;;;;;16.14;100.00;101168.19;4974469;28;45309;-75
2023/03/19 07:12:54;;;;;;;;;14.67;12.67;;;;;16.15;100.00;101145.19;4970597;28;45321;-76
2023/03/19 07:15:20;;;;;;;;;14.00;13.00;;;;;16.36;100.00;101159.19;4974089;28;46668;-76
2023/03/19 07:17:46;;;;;;;;;11.00;9.33;;;;;16.42;100.00;101165.00;4963126;28;45660;-75
2023/03/19 07:20:12;;;;;;;;;12.00;11.00;;;;;16.34;100.00;101169.50;4965605;28;45459;-75
2023/03/19 07:22:37;;;;;;;;;11.33;10.33;;;;;16.47;100.00;101152.47;4970337;28;45660;-75
2023/03/19 07:25:03;;;;;;;;;13.00;11.00;;;;;16.51;100.00;101167.53;4970446;28;45584;-76
2023/03/19 07:27:28;;;;;;;;;10.33;8.67;;;;;16.51;100.00;101167.53;4967834;28;45338;-74
2023/03/19 07:29:54;;;;;;;;;13.00;12.00;;;;;16.48;100.00;101158.81;4970479;28;45293;-75
2023/03/19 07:32:21;;;;;;;;;8.00;6.33;;;;;16.47;100.00;101154.34;4960199;28;45575;-75
2023/03/19 07:34:46;;;;;;;;;8.67;7.33;;;;;16.24;100.00;101162.47;4965166;28;45999;-75
2023/03/19 07:37:11;;;;;;;;;12.00;9.00;;;;;16.16;100.00;101154.28;4962575;28;45453;-76
2023/03/19 07:39:37;;;;;;;;;8.33;8.33;;;;;15.65;100.00;101161.00;4979636;28;45309;-75
2023/03/19 07:42:03;;;;;;;;;8.00;8.00;;;;;15.68;100.00;101168.91;4973592;28;45371;-75
2023/03/19 07:44:29;;;;;;;;;6.67;4.33;;;;;15.16;100.00;101166.41;4965887;28;46873;-75
2023/03/19 07:46:54;;;;;;;;;8.33;8.33;;;;;15.40;100.00;101169.19;4962564;28;45523;-74
2023/03/19 07:49:19;;;;;;;;;7.67;7.00;;;;;15.53;100.00;101169.56;5003864;28;45270;-74
2023/03/19 07:51:45;;;;;;;;;8.33;6.33;;;;;15.75;100.00;101183.63;4973293;28;45564;-74
2023/03/19 07:54:10;;;;;;;;;9.67;9.67;;;;;15.78;100.00;101175.06;4964925;28;45973;-74
2023/03/19 07:56:36;;;;;;;;;8.33;8.33;;;;;15.91;100.00;101178.13;4977376;28;45172;-75
2023/03/19 07:59:01;;;;;;;;;10.67;10.33;;;;;16.27;100.00;101179.44;4963965;28;45441;-74
2023/03/19 08:01:26;;;;;;;;;10.33;10.33;;;;;16.26;100.00;101180.47;4971112;28;46221;-75
2023/03/19 08:03:52;;;;;;;;;11.33;9.67;;;;;16.22;100.00;101176.34;4957592;28;46925;-75
2023/03/19 08:06:17;;;;;;;;;12.67;9.00;;;;;16.90;100.00;101184.03;4972880;28;45724;-74
2023/03/19 08:08:42;;;;;;;;;7.67;7.67;;;;;17.26;100.00;101187.09;4966750;28;45379;-75
2023/03/19 08:11:08;;;;;;;;;7.33;7.00;;;;;17.56;100.00;101151.53;4979271;28;45304;-75
2023/03/19 08:13:33;;;;;;;;;4.00;4.00;;;;;17.71;100.00;101178.06;4980794;28;48016;-78
2023/03/19 08:15:58;;;;;;;;;6.00;6.00;;;;;17.90;100.00;101187.66;4962372;28;45440;-75
2023/03/19 08:18:24;;;;;;;;;7.00;6.67;;;;;18.30;100.00;101172.69;4963640;28;45386;-76
2023/03/19 08:20:50;;;;;;;;;4.00;4.00;;;;;17.82;100.00;101183.13;4969317;28;45384;-75
2023/03/19 08:23:15;;;;;;;;;8.00;6.67;;;;;18.00;100.00;101180.03;4965829;28;45587;-75
2023/03/19 08:25:41;;;;;;;;;6.00;6.00;;;;;17.82;100.00;101180.38;4975225;28;45369;-74
2023/03/19 08:28:08;;;;;;;;;11.33;8.67;;;;;17.67;100.00;101193.22;4961448;28;45264;-75
2023/03/19 08:30:35;;;;;;;;;8.67;7.67;;;;;17.79;100.00;101197.22;4957783;28;45666;-75
2023/03/19 08:33:00;;;;;;;;;8.33;6.33;;;;;17.13;100.00;101200.56;4977496;28;47990;-75
2023/03/19 08:35:26;;;;;;;;;7.67;7.67;;;;;16.97;100.00;101198.75;4968319;28;45319;-76
2023/03/19 08:37:51;;;;;;;;;6.33;6.33;;;;;17.06;100.00;101205.06;4968534;28;45353;-75
2023/03/19 08:40:17;;;;;;;;;9.33;7.33;;;;;17.02;100.00;101211.97;4973508;28;45517;-75
2023/03/19 08:42:43;;;;;;;;;7.67;7.67;;;;;16.21;100.00;101224.03;4961156;28;48256;-74
2023/03/19 08:45:10;;;;;;;;;6.67;5.00;;;;;16.17;100.00;101225.38;4976623;28;45916;-76
2023/03/19 08:47:35;;;;;;;;;9.00;8.00;;;;;16.16;100.00;101242.84;4977736;28;45392;-75
2023/03/19 08:50:01;;;;;;;;;14.00;12.00;;;;;16.29;100.00;101226.72;4971787;28;45285;-76
2023/03/19 08:52:26;;;;;;;;;17.67;14.00;;;;;16.40;100.00;101260.31;4968999;28;47182;-75
2023/03/19 08:54:51;;;;;;;;;15.00;14.00;;;;;16.33;100.00;101244.56;4975016;28;45298;-75
2023/03/19 08:57:17;;;;;;;;;14.00;11.33;;;;;16.01;100.00;101263.75;4966116;28;46525;-75
2023/03/19 08:59:42;;;;;;;;;7.00;7.00;;;;;15.82;100.00;101269.56;4981840;28;45380;-74
2023/03/19 09:02:11;;;;;;;;;8.33;8.33;;;;;15.83;100.00;101274.03;4970460;28;45557;-75
2023/03/19 09:04:39;;;;;;;;;14.00;11.67;;;;;15.94;100.00;101276.44;4967021;28;45513;-74
2023/03/19 09:07:05;;;;;;;;;7.33;6.33;;;;;15.51;100.00;101286.59;4972277;28;45250;-75
2023/03/19 09:09:31;;;;;;;;;15.00;14.67;;;;;15.75;100.00;101272.16;4967911;28;45520;-74
2023/03/19 09:11:56;;;;;;;;;14.00;14.00;;;;;15.72;100.00;101275.22;4975516;28;46053;-75
2023/03/19 09:14:22;;;;;;;;;11.67;10.00;;;;;16.00;100.00;101275.75;4967085;28;45336;-74
2023/03/19 09:16:47;;;;;;;;;13.67;11.33;;;;;16.06;100.00;101286.06;4975550;28;45213;-75
2023/03/19 09:19:13;;;;;;;;;8.33;8.33;;;;;16.04;100.00;101289.97;4968347;28;45604;-75
2023/03/19 09:21:39;;;;;;;;;7.67;6.33;;;;;15.98;100.00;101288.78;4974125;28;46926;-74
2023/03/19 09:24:05;;;;;;;;;8.67;8.67;;;;;16.04;100.00;101290.84;4960014;28;45917;-75
2023/03/19 09:26:30;;;;;;;;;10.33;10.33;;;;;15.99;100.00;101290.50;4964387;28;45436;-74
2023/03/19 09:28:56;;;;;;;;;11.67;11.33;;;;;16.15;100.00;101295.97;4965236;28;45277;-76
2023/03/19 09:31:22;;;;;;;;;9.00;8.00;;;;;15.70;100.00;101274.53;4972583;28;45445;-75
2023/03/19 09:33:49;;;;;;;;;10.33;9.00;;;;;15.99;100.00;101286.91;4977473;28;45482;-75
2023/03/19 09:36:14;;;;;;;;;16.00;14.33;;;;;16.07;100.00;101292.38;4973031;28;45418;-75
2023/03/19 09:38:40;;;;;;;;;8.67;8.67;;;;;16.30;100.00;101293.38;4971015;28;45422;-75
2023/03/19 09:41:08;;;;;;;;;9.33;7.00;;;;;16.05;100.00;101306.25;4974928;28;46022;-75
2023/03/19 09:44:00;;;;;;;;;10.00;6.33;;;;;16.17;100.00;101304.03;5003915;28;45379;-75
2023/03/19 09:46:37;;;;;;;;;13.00;9.00;;;;;15.90;100.00;101299.72;4968805;28;45433;-76
2023/03/19 09:49:25;;;;;;;;;9.33;8.00;;;;;16.00;100.00;101300.41;4973782;28;45372;-75
2023/03/19 09:52:30;;;;;;;;;5.33;5.33;;;;;16.08;100.00;101305.91;4975983;28;45601;-75
2023/03/19 09:55:24;;;;;;;;;7.00;7.00;;;;;16.18;100.00;101301.13;4969526;28;45360;-75
2023/03/19 09:57:52;;;;;;;;;9.33;9.33;;;;;16.07;100.00;101319.81;4971936;28;45404;-75
2023/03/19 10:00:31;;;;;;;;;7.67;7.67;;;;;15.93;100.00;101315.81;4977758;28;45594;-75
2023/03/19 10:03:25;;;;;;;;;12.00;8.00;;;;;16.02;100.00;101324.91;4970968;28;45503;-75
2023/03/19 10:06:15;;;;;;;;;8.00;6.00;;;;;16.07;100.00;101331.59;4955034;28;45486;-75
2023/03/19 10:08:59;;;;;;;;;9.33;7.33;;;;;16.09;100.00;101323.19;4973230;28;45305;-76
2023/03/19 10:11:41;;;;;;;;;7.00;7.00;;;;;16.10;100.00;101328.53;4973262;28;45442;-74
2023/03/19 10:14:39;;;;;;;;;9.33;9.33;;;;;16.17;100.00;101332.28;4972785;28;46229;-75
2023/03/19 10:17:11;;;;;;;;;7.67;7.00;;;;;18.12;100.00;101331.66;4970914;28;45280;-77
2023/03/19 10:19:48;;;;;;;;;7.67;7.67;;;;;18.24;100.00;101324.72;4971143;28;45391;-77
2023/03/19 10:22:37;;;;;;;;;7.00;7.00;;;;;17.96;100.00;101315.31;4976127;28;45617;-77
2023/03/19 10:25:04;;;;;;;;;8.00;6.00;;;;;18.21;100.00;101327.81;4998259;28;47788;-75
2023/03/19 10:27:29;;;;;;;;;7.33;7.33;;;;;18.49;100.00;101328.09;4968130;28;45337;-77
2023/03/19 10:29:55;;;;;;;;;9.33;9.33;;;;;18.48;100.00;101338.25;4968471;28;45428;-75
2023/03/19 10:32:41;;;;;;;;;7.00;7.00;;;;;18.72;100.00;101336.34;4968572;28;45477;-78
2023/03/19 10:35:20;;;;;;;;;9.67;9.67;;;;;18.64;100.00;101346.41;4973194;28;45579;-76
2023/03/19 10:37:48;;;;;;;;;11.00;9.00;;;;;18.57;100.00;101317.06;4995491;28;46010;-77
2023/03/19 10:40:24;;;;;;;;;10.33;10.33;;;;;18.74;100.00;101331.53;4970052;28;45419;-76
2023/03/19 10:43:12;;;;;;;;;12.33;11.00;;;;;18.82;100.00;101343.31;4966856;28;45503;-77
2023/03/19 10:45:38;;;;;;;;;7.67;7.00;;;;;18.48;100.00;101331.91;4966367;28;45473;-77
2023/03/19 10:48:04;;;;;;;;;13.33;12.00;;;;;18.45;100.00;101329.53;4958255;28;46502;-80
2023/03/19 10:50:53;;;;;;;;;12.67;9.67;;;;;18.54;100.00;101342.19;4970458;28;45417;-78
2023/03/19 10:53:18;;;;;;;;;9.33;7.33;;;;;18.13;100.00;101358.13;4966375;28;45643;-78
2023/03/19 10:56:05;;;;;;;;;9.00;9.00;;;;;17.17;100.00;101374.06;5007943;28;47033;-78
2023/03/19 10:58:33;;;;;;;;;6.67;6.67;;;;;17.26;100.00;101373.00;4987476;28;45502;-78
2023/03/19 11:01:10;;;;;;;;;6.00;6.00;;;;;17.37;100.00;101378.13;4976455;28;45283;-78
2023/03/19 11:03:55;;;;;;;;;7.00;7.00;;;;;17.32;100.00;101372.28;4979341;28;45292;-79
2023/03/19 11:06:34;;;;;;;;;4.00;4.00;;;;;17.48;100.00;101374.97;4980208;28;48105;-79
2023/03/19 11:09:09;;;;;;;;;6.67;5.67;;;;;17.65;100.00;101371.16;5000638;28;45325;-78
2023/03/19 11:11:42;;;;;;;;;6.00;6.00;;;;;17.72;100.00;101363.03;5009326;28;45356;-78
2023/03/19 11:14:14;;;;;;;;;7.00;7.00;;;;;17.64;100.00;101380.44;4981706;28;45400;-79
2023/03/19 11:16:55;;;;;;;;;9.00;5.00;;;;;17.67;100.00;101369.09;4973877;28;45344;-79